createdAt,value
2023-08-31T00:01:34.200Z,99223.97
2023-08-31T00:04:01.135Z,99217.06
2023-08-31T00:06:27.889Z,99231.31
2023-08-31T00:08:54.529Z,99229.84
2023-08-31T00:11:21.071Z,99230.88
2023-08-31T00:13:47.765Z,99227.53
2023-08-31T00:16:14.633Z,99226.28
2023-08-31T00:18:41.932Z,99225.03
2023-08-31T00:21:11.371Z,99225.84
2023-08-31T00:23:38.209Z,99222.72
2023-08-31T00:26:04.873Z,99226.69
2023-08-31T00:28:31.728Z,99229.63
2023-08-31T00:30:58.812Z,99224.59
2023-08-31T00:33:27.732Z,99227.72
2023-08-31T00:35:57.185Z,99231.72
2023-08-31T00:38:23.842Z,99233.19
2023-08-31T00:40:51.393Z,99231.50
2023-08-31T00:43:18.984Z,99227.75
2023-08-31T00:45:46.440Z,99229.81
2023-08-31T00:48:16.230Z,99222.28
2023-08-31T00:50:42.862Z,99226.06
2023-08-31T00:53:09.800Z,99220.16
2023-08-31T00:55:36.583Z,99227.75
2023-08-31T00:58:03.524Z,99219.13
2023-08-31T01:00:53.176Z,99227.31
2023-08-31T01:03:53.641Z,99220.81
2023-08-31T01:06:35.054Z,99236.94
2023-08-31T01:09:29.178Z,99229.63
2023-08-31T01:12:07.987Z,99230.25
2023-08-31T01:14:43.181Z,99232.78
2023-08-31T01:17:13.491Z,99235.25
2023-08-31T01:19:52.681Z,99230.88
2023-08-31T01:22:28.189Z,99230.03
2023-08-31T01:24:55.014Z,99236.50
2023-08-31T01:27:22.058Z,99242.38
2023-08-31T01:29:48.629Z,99240.09
2023-08-31T01:32:15.288Z,99236.97
2023-08-31T01:34:41.836Z,99233.38
2023-08-31T01:37:24.665Z,99229.38
2023-08-31T01:39:55.486Z,99228.53
2023-08-31T01:42:23.116Z,99231.00
2023-08-31T01:44:49.855Z,99229.97
2023-08-31T01:47:17.390Z,99233.72
2023-08-31T01:49:44.579Z,99240.69
2023-08-31T01:52:11.206Z,99231.44
2023-08-31T01:54:40.578Z,99236.06
2023-08-31T01:57:07.314Z,99238.19
2023-08-31T01:59:35.557Z,99234.41
2023-08-31T02:02:02.413Z,99237.34
2023-08-31T02:04:28.932Z,99241.13
2023-08-31T02:06:55.436Z,99233.31
2023-08-31T02:09:22.129Z,99230.59
2023-08-31T02:11:48.785Z,99240.88
2023-08-31T02:14:15.317Z,99238.16
2023-08-31T02:16:41.823Z,99242.78
2023-08-31T02:19:08.375Z,99237.56
2023-08-31T02:21:34.991Z,99243.41
2023-08-31T02:24:01.482Z,99249.06
2023-08-31T02:26:28.011Z,99249.09
2023-08-31T02:28:54.600Z,99248.25
2023-08-31T02:31:21.143Z,99248.47
2023-08-31T02:33:48.125Z,99249.50
2023-08-31T02:36:14.684Z,99252.47
2023-08-31T02:38:41.351Z,99249.75
2023-08-31T02:41:07.873Z,99252.69
2023-08-31T02:43:34.418Z,99251.00
2023-08-31T02:46:02.394Z,99247.63
2023-08-31T02:48:32.180Z,99247.44
2023-08-31T02:51:02.145Z,99249.28
2023-08-31T02:53:29.051Z,99256.41
2023-08-31T02:55:55.597Z,99255.53
2023-08-31T02:58:22.158Z,99252.63
2023-08-31T03:00:49.505Z,99256.59
2023-08-31T03:03:19.190Z,99253.41
2023-08-31T03:05:46.055Z,99253.81
2023-08-31T03:08:12.761Z,99255.28
2023-08-31T03:10:40.070Z,99259.50
2023-08-31T03:13:06.697Z,99256.53
2023-08-31T03:15:34.882Z,99262.19
2023-08-31T03:18:01.955Z,99265.31
2023-08-31T03:20:28.573Z,99277.47
2023-08-31T03:22:55.096Z,99273.47
2023-08-31T03:25:21.725Z,99275.75
2023-08-31T03:27:48.463Z,99264.84
2023-08-31T03:30:15.059Z,99269.84
2023-08-31T03:32:41.761Z,99272.16
2023-08-31T03:35:08.609Z,99271.34
2023-08-31T03:37:35.188Z,99270.25
2023-08-31T03:40:01.788Z,99276.56
2023-08-31T03:42:28.268Z,99271.94
2023-08-31T03:44:54.779Z,99277.00
2023-08-31T03:47:21.320Z,99276.94
2023-08-31T03:49:47.809Z,99276.75
2023-08-31T03:52:14.613Z,99283.88
2023-08-31T03:54:41.092Z,99292.03
2023-08-31T03:57:07.634Z,99283.88
2023-08-31T03:59:34.406Z,99284.09
2023-08-31T04:02:01.666Z,99291.88
2023-08-31T04:04:28.173Z,99286.25
2023-08-31T04:06:54.725Z,99285.78
2023-08-31T04:09:21.302Z,99284.75
2023-08-31T04:11:47.791Z,99291.88
2023-08-31T04:14:14.240Z,99299.03
2023-08-31T04:16:40.732Z,99286.69
2023-08-31T04:19:07.263Z,99289.75
2023-08-31T04:21:34.132Z,99291.50
2023-08-31T04:24:01.426Z,99283.56
2023-08-31T04:26:29.183Z,99285.25
2023-08-31T04:28:55.938Z,99292.97
2023-08-31T04:31:23.403Z,99292.78
2023-08-31T04:33:54.903Z,99297.41
2023-08-31T04:36:22.772Z,99297.44
2023-08-31T04:38:52.787Z,99294.75
2023-08-31T04:41:20.172Z,99284.03
2023-08-31T04:43:49.096Z,99300.63
2023-08-31T04:46:16.132Z,99290.75
2023-08-31T04:48:42.898Z,99298.75
2023-08-31T04:51:33.673Z,99304.44
2023-08-31T04:54:00.949Z,99303.19
2023-08-31T04:56:33.217Z,99306.34
2023-08-31T04:59:00.442Z,99313.47
2023-08-31T05:01:30.716Z,99319.75
2023-08-31T05:03:57.347Z,99324.19
2023-08-31T05:06:23.950Z,99329.44
2023-08-31T05:08:50.819Z,99331.53
2023-08-31T05:11:17.332Z,99329.41
2023-08-31T05:13:43.950Z,99333.63
2023-08-31T05:16:10.651Z,99339.50
2023-08-31T05:18:37.757Z,99344.94
2023-08-31T05:21:05.493Z,99346.25
2023-08-31T05:23:32.225Z,99338.50
2023-08-31T05:25:59.245Z,99346.25
2023-08-31T05:28:26.056Z,99348.59
2023-08-31T05:30:53.992Z,99350.06
2023-08-31T05:33:20.845Z,99352.38
2023-08-31T05:35:47.384Z,99355.28
2023-08-31T05:38:13.909Z,99356.34
2023-08-31T05:40:40.640Z,99362.44
2023-08-31T05:43:07.406Z,99358.44
2023-08-31T05:45:34.580Z,99376.69
2023-08-31T05:48:01.888Z,99375.66
2023-08-31T05:50:29.058Z,99375.06
2023-08-31T05:52:56.568Z,99380.31
2023-08-31T05:55:23.797Z,99376.13
2023-08-31T05:57:50.392Z,99376.94
2023-08-31T06:00:17.935Z,99380.53
2023-08-31T06:02:47.584Z,99387.53
2023-08-31T06:05:14.497Z,99381.00
2023-08-31T06:07:41.057Z,99386.03
2023-08-31T06:10:08.151Z,99394.63
2023-08-31T06:12:34.851Z,99398.41
2023-08-31T06:15:01.908Z,99396.75
2023-08-31T06:17:28.487Z,99394.03
2023-08-31T06:19:55.120Z,99383.53
2023-08-31T06:22:24.063Z,99388.50
2023-08-31T06:24:50.649Z,99394.56
2023-08-31T06:27:39.480Z,99382.63
2023-08-31T06:30:08.602Z,99394.03
2023-08-31T06:32:35.763Z,99401.78
2023-08-31T06:35:02.363Z,99403.69
2023-08-31T06:37:29.026Z,99399.28
2023-08-31T06:39:55.595Z,99404.75
2023-08-31T06:42:22.271Z,99405.81
2023-08-31T06:44:49.690Z,99409.19
2023-08-31T06:47:18.597Z,99385.00
2023-08-31T06:49:45.113Z,99410.00
2023-08-31T06:52:21.915Z,99406.00
2023-08-31T06:54:57.912Z,99407.41
2023-08-31T06:57:26.553Z,99421.28
2023-08-31T06:59:53.400Z,99417.09
2023-08-31T07:02:20.712Z,99414.19
2023-08-31T07:04:47.482Z,99415.84
2023-08-31T07:07:15.445Z,99417.09
2023-08-31T07:09:44.403Z,99415.41
2023-08-31T07:12:11.538Z,99405.75
2023-08-31T07:14:38.289Z,99416.88
2023-08-31T07:17:04.891Z,99415.28
2023-08-31T07:19:31.772Z,99427.09
2023-08-31T07:21:58.922Z,99420.78
2023-08-31T07:24:27.141Z,99429.66
2023-08-31T07:26:53.793Z,99425.50
2023-08-31T07:29:20.413Z,99422.47
2023-08-31T07:31:47.555Z,99424.59
2023-08-31T07:34:14.494Z,99429.25
2023-08-31T07:36:41.112Z,99429.34
2023-08-31T07:39:08.397Z,99427.97
2023-08-31T07:41:35.142Z,99440.47
2023-08-31T07:44:05.329Z,99426.31
2023-08-31T07:46:32.378Z,99436.47
2023-08-31T07:48:59.107Z,99444.66
2023-08-31T07:51:27.617Z,99445.25
2023-08-31T07:53:54.256Z,99438.72
2023-08-31T07:56:20.865Z,99444.69
2023-08-31T07:58:48.141Z,99445.09
2023-08-31T08:01:14.884Z,99449.41
2023-08-31T08:03:41.567Z,99454.38
2023-08-31T08:06:08.200Z,99454.53
2023-08-31T08:08:34.824Z,99455.75
2023-08-31T08:11:01.621Z,99467.31
2023-08-31T08:13:28.255Z,99455.25
2023-08-31T08:15:54.760Z,99455.72
2023-08-31T08:18:24.171Z,99459.75
2023-08-31T08:20:54.341Z,99457.97
2023-08-31T08:23:23.245Z,99463.50
2023-08-31T08:25:49.904Z,99455.97
2023-08-31T08:28:16.527Z,99469.00
2023-08-31T08:30:43.302Z,99462.84
2023-08-31T08:33:10.892Z,99465.97
2023-08-31T08:35:40.747Z,99459.28
2023-08-31T08:38:07.644Z,99461.44
2023-08-31T08:40:35.535Z,99466.34
2023-08-31T08:43:03.376Z,99473.63
2023-08-31T08:45:38.290Z,99486.69
2023-08-31T08:48:07.445Z,99484.19
2023-08-31T08:50:35.425Z,99485.31
2023-08-31T08:53:06.061Z,99478.72
2023-08-31T08:55:33.576Z,99479.28
2023-08-31T08:58:04.619Z,99483.97
2023-08-31T09:00:31.846Z,99492.56
2023-08-31T09:03:00.182Z,99484.56
2023-08-31T09:05:27.964Z,99481.78
2023-08-31T09:08:06.358Z,99485.47
2023-08-31T09:10:41.290Z,99478.34
2023-08-31T09:13:09.858Z,99487.53
2023-08-31T09:15:46.261Z,99488.38
2023-08-31T09:18:27.879Z,99481.50
2023-08-31T09:20:55.490Z,99481.88
2023-08-31T09:23:22.926Z,99496.19
2023-08-31T09:25:57.104Z,99488.06
2023-08-31T09:28:28.101Z,99497.53
2023-08-31T09:31:10.549Z,99490.88
2023-08-31T09:33:38.486Z,99502.03
2023-08-31T09:36:08.366Z,99491.34
2023-08-31T09:38:43.420Z,99493.66
2023-08-31T09:41:10.148Z,99511.34
2023-08-31T09:43:36.787Z,99509.91
2023-08-31T09:46:05.139Z,99503.16
2023-08-31T09:48:32.439Z,99508.41
2023-08-31T09:50:59.078Z,99506.81
2023-08-31T09:53:27.795Z,99506.59
2023-08-31T09:55:57.736Z,99519.31
2023-08-31T09:58:25.314Z,99518.34
2023-08-31T10:00:53.925Z,99521.50
2023-08-31T10:03:22.013Z,99526.88
2023-08-31T10:05:50.953Z,99534.66
2023-08-31T10:08:18.627Z,99522.03
2023-08-31T10:13:12.995Z,99532.94
2023-08-31T10:15:41.003Z,99527.53
2023-08-31T10:18:08.407Z,99520.50
2023-08-31T10:20:35.772Z,99518.28
2023-08-31T10:23:06.511Z,99523.78
2023-08-31T10:25:51.280Z,99523.78
2023-08-31T10:28:19.783Z,99523.31
2023-08-31T10:31:06.272Z,99526.41
2023-08-31T10:33:34.719Z,99521.06
2023-08-31T10:36:01.722Z,99527.88
2023-08-31T10:38:32.690Z,99520.38
2023-08-31T10:41:08.458Z,99524.66
2023-08-31T10:43:59.077Z,99526.22
2023-08-31T10:46:33.818Z,99525.22
2023-08-31T10:49:04.265Z,99523.78
2023-08-31T10:51:33.870Z,99522.38
2023-08-31T10:54:11.834Z,99522.41
2023-08-31T10:57:09.585Z,99533.78
2023-08-31T10:59:52.748Z,99525.41
2023-08-31T11:02:38.178Z,99527.13
2023-08-31T11:05:11.724Z,99519.69
2023-08-31T11:07:41.541Z,99522.25
2023-08-31T11:10:13.601Z,99522.72
2023-08-31T11:12:44.425Z,99519.91
2023-08-31T11:15:15.903Z,99526.06
2023-08-31T11:17:43.202Z,99529.63
2023-08-31T11:20:14.010Z,99521.72
2023-08-31T11:22:42.284Z,99529.41
2023-08-31T11:25:10.340Z,99531.84
2023-08-31T11:27:38.340Z,99528.00
2023-08-31T11:30:12.972Z,99534.84
2023-08-31T11:32:51.605Z,99530.78
2023-08-31T11:35:20.735Z,99538.22
2023-08-31T11:37:51.904Z,99533.75
2023-08-31T11:40:18.895Z,99530.28
2023-08-31T11:42:45.780Z,99528.31
2023-08-31T11:45:15.149Z,99537.41
2023-08-31T11:47:42.638Z,99527.84
2023-08-31T11:50:09.598Z,99532.41
2023-08-31T11:52:36.312Z,99530.63
2023-08-31T11:55:04.595Z,99523.47
2023-08-31T11:57:31.326Z,99527.88
2023-08-31T11:59:58.343Z,99518.53
2023-08-31T12:02:24.914Z,99517.19
2023-08-31T12:04:52.536Z,99517.84
2023-08-31T12:07:20.086Z,99520.25
2023-08-31T12:09:47.365Z,99526.94
2023-08-31T12:12:22.732Z,99523.78
2023-08-31T12:14:54.035Z,99520.56
2023-08-31T12:17:20.614Z,99513.03
2023-08-31T12:19:47.443Z,99518.03
2023-08-31T12:22:14.280Z,99519.56
2023-08-31T12:24:42.350Z,99498.66
2023-08-31T12:27:09.920Z,99511.19
2023-08-31T12:29:37.117Z,99508.88
2023-08-31T12:32:04.365Z,99508.59
2023-08-31T12:34:33.618Z,99503.88
2023-08-31T12:37:03.944Z,99505.88
2023-08-31T12:39:30.809Z,99498.97
2023-08-31T12:42:08.841Z,99511.44
2023-08-31T12:44:43.416Z,99498.34
2023-08-31T12:47:10.108Z,99491.34
2023-08-31T12:49:36.636Z,99490.03
2023-08-31T12:52:04.076Z,99488.59
2023-08-31T12:54:31.005Z,99488.72
2023-08-31T12:56:58.150Z,99503.28
2023-08-31T12:59:24.732Z,99493.97
2023-08-31T13:01:51.917Z,99496.00
2023-08-31T13:04:18.558Z,99498.00
2023-08-31T13:06:45.328Z,99490.66
2023-08-31T13:09:12.414Z,99483.06
2023-08-31T13:11:38.979Z,99482.22
2023-08-31T13:14:05.602Z,99480.50
2023-08-31T13:16:33.477Z,99479.22
2023-08-31T13:19:00.274Z,99491.50
2023-08-31T13:21:27.613Z,99500.03
2023-08-31T13:23:54.702Z,99488.06
2023-08-31T13:26:21.467Z,99485.97
2023-08-31T13:28:48.265Z,99508.72
2023-08-31T13:31:14.990Z,99506.69
2023-08-31T13:33:42.044Z,99503.75
2023-08-31T13:36:09.958Z,99508.91
2023-08-31T13:38:36.685Z,99495.63
2023-08-31T13:41:04.849Z,99501.22
2023-08-31T13:43:31.470Z,99505.44
2023-08-31T13:45:58.505Z,99509.06
2023-08-31T13:48:25.328Z,99534.47
2023-08-31T13:50:52.668Z,99569.97
2023-08-31T13:53:19.495Z,99579.09
2023-08-31T13:55:46.353Z,99594.13
2023-08-31T13:58:13.385Z,99595.56
2023-08-31T14:00:41.291Z,99607.97
2023-08-31T14:03:08.043Z,99611.69
2023-08-31T14:05:34.744Z,99600.03
2023-08-31T14:08:04.641Z,99607.22
2023-08-31T14:10:33.675Z,99602.38
2023-08-31T14:13:00.997Z,99592.91
2023-08-31T14:15:28.210Z,99588.69
2023-08-31T14:17:54.929Z,99595.16
2023-08-31T14:20:23.634Z,99593.94
2023-08-31T14:22:51.593Z,99606.91
2023-08-31T14:25:18.487Z,99600.72
2023-08-31T14:27:44.958Z,99605.94
2023-08-31T14:30:11.764Z,99615.00
2023-08-31T14:32:38.490Z,99627.06
2023-08-31T14:35:07.423Z,99640.69
2023-08-31T14:37:34.210Z,99632.94
2023-08-31T14:40:00.755Z,99651.03
2023-08-31T14:42:28.567Z,99651.78
2023-08-31T14:44:55.337Z,99653.13
2023-08-31T14:47:22.091Z,99648.72
2023-08-31T14:49:48.639Z,99654.41
2023-08-31T14:52:15.503Z,99654.53
2023-08-31T14:54:42.017Z,99652.66
2023-08-31T14:57:08.910Z,99654.13
2023-08-31T14:59:35.462Z,99652.47
2023-08-31T15:02:06.417Z,99644.03
2023-08-31T15:04:33.802Z,99647.19
2023-08-31T15:07:00.836Z,99650.34
2023-08-31T15:09:28.057Z,99644.31
2023-08-31T15:11:54.902Z,99639.28
2023-08-31T15:14:21.765Z,99645.56
2023-08-31T15:16:48.410Z,99632.59
2023-08-31T15:19:15.062Z,99636.41
2023-08-31T15:21:41.772Z,99643.50
2023-08-31T15:24:08.827Z,99647.25
2023-08-31T15:26:35.676Z,99633.44
2023-08-31T15:29:02.327Z,99646.84
2023-08-31T15:31:28.852Z,99637.38
2023-08-31T15:33:55.376Z,99646.41
2023-08-31T15:36:22.043Z,99646.84
2023-08-31T15:38:50.086Z,99645.34
2023-08-31T15:41:16.772Z,99658.78
2023-08-31T15:43:43.785Z,99653.97
2023-08-31T15:46:10.613Z,99649.78
2023-08-31T15:48:37.189Z,99647.09
2023-08-31T15:51:04.141Z,99647.78
2023-08-31T15:53:31.599Z,99656.41
2023-08-31T15:55:58.241Z,99644.22
2023-08-31T15:58:28.026Z,99653.66
2023-08-31T16:01:02.612Z,99650.69
2023-08-31T16:03:33.451Z,99654.03
2023-08-31T16:06:00.463Z,99654.44
2023-08-31T16:08:28.800Z,99662.84
2023-08-31T16:10:55.843Z,99659.09
2023-08-31T16:13:22.483Z,99665.44
2023-08-31T16:15:50.386Z,99659.72
2023-08-31T16:18:17.508Z,99661.03
2023-08-31T16:20:45.015Z,99663.97
2023-08-31T16:23:11.907Z,99669.03
2023-08-31T16:25:38.785Z,99676.41
2023-08-31T16:28:05.596Z,99677.69
2023-08-31T16:30:32.414Z,99684.22
2023-08-31T16:32:59.407Z,99686.50
2023-08-31T16:35:26.444Z,99685.25
2023-08-31T16:37:52.941Z,99687.56
2023-08-31T16:40:19.886Z,99694.28
2023-08-31T16:42:46.377Z,99706.41
2023-08-31T16:45:13.906Z,99699.06
2023-08-31T16:47:40.815Z,99708.28
2023-08-31T16:50:07.781Z,99701.53
2023-08-31T16:52:34.357Z,99712.84
2023-08-31T16:55:01.012Z,99708.78
2023-08-31T16:57:27.772Z,99706.22
2023-08-31T16:59:54.327Z,99712.28
2023-08-31T17:02:21.116Z,99716.72
2023-08-31T17:04:48.051Z,99712.88
2023-08-31T17:07:14.781Z,99723.31
2023-08-31T17:09:42.439Z,99721.91
2023-08-31T17:12:09.296Z,99715.53
2023-08-31T17:14:35.912Z,99716.38
2023-08-31T17:17:04.238Z,99719.00
2023-08-31T17:19:30.853Z,99721.50
2023-08-31T17:21:57.476Z,99724.38
2023-08-31T17:24:24.663Z,99710.81
2023-08-31T17:26:51.160Z,99717.94
2023-08-31T17:29:17.737Z,99721.78
2023-08-31T17:31:45.963Z,99723.84
2023-08-31T17:34:17.195Z,99735.16
2023-08-31T17:36:45.443Z,99733.53
2023-08-31T17:39:13.738Z,99738.66
2023-08-31T17:41:40.888Z,99733.28
2023-08-31T17:44:07.501Z,99747.00
2023-08-31T17:46:34.228Z,99747.44
2023-08-31T17:49:00.931Z,99756.22
2023-08-31T17:51:28.338Z,99760.94
2023-08-31T17:53:57.738Z,99763.47
2023-08-31T17:56:28.428Z,99771.56
2023-08-31T17:58:55.576Z,99771.91
2023-08-31T18:01:22.811Z,99773.31
2023-08-31T18:03:49.981Z,99775.88
2023-08-31T18:06:17.360Z,99789.50
2023-08-31T18:08:48.110Z,99780.03
2023-08-31T18:11:15.734Z,99795.53
2023-08-31T18:13:42.296Z,99791.09
2023-08-31T18:16:09.227Z,99787.91
2023-08-31T18:18:35.915Z,99787.91
2023-08-31T18:21:02.408Z,99786.97
2023-08-31T18:23:29.679Z,99796.34
2023-08-31T18:25:56.636Z,99799.47
2023-08-31T18:28:23.357Z,99801.28
2023-08-31T18:30:57.567Z,99801.44
2023-08-31T18:33:26.395Z,99797.78
2023-08-31T18:35:53.841Z,99803.06
2023-08-31T18:38:22.036Z,99804.44
2023-08-31T18:40:51.691Z,99803.97
2023-08-31T18:43:22.641Z,99804.09
2023-08-31T18:45:49.974Z,99812.25
2023-08-31T18:48:17.118Z,99806.16
2023-08-31T18:50:43.920Z,99806.81
2023-08-31T18:53:11.088Z,99806.22
2023-08-31T18:55:38.247Z,99798.03
2023-08-31T18:58:05.961Z,99801.81
2023-08-31T19:00:32.638Z,99808.97
2023-08-31T19:02:59.804Z,99809.81
2023-08-31T19:05:28.205Z,99801.38
2023-08-31T19:07:55.120Z,99803.63
2023-08-31T19:10:22.848Z,99812.06
2023-08-31T19:12:50.091Z,99805.84
2023-08-31T19:15:18.338Z,99819.00
2023-08-31T19:17:47.266Z,99808.50
2023-08-31T19:20:17.536Z,99813.47
2023-08-31T19:22:45.467Z,99813.75
2023-08-31T19:25:13.153Z,99812.06
2023-08-31T19:27:40.611Z,99817.97
2023-08-31T19:30:08.422Z,99815.03
2023-08-31T19:32:35.076Z,99820.88
2023-08-31T19:35:03.409Z,99819.75
2023-08-31T19:37:33.136Z,99818.44
2023-08-31T19:40:01.945Z,99819.94
2023-08-31T19:42:28.458Z,99818.63
2023-08-31T19:44:55.364Z,99825.13
2023-08-31T19:47:22.019Z,99828.03
2023-08-31T19:49:50.899Z,99827.00
2023-08-31T19:52:17.550Z,99830.53
2023-08-31T19:54:44.317Z,99835.06
2023-08-31T19:57:10.960Z,99834.69
2023-08-31T19:59:37.786Z,99841.25
2023-08-31T20:02:04.613Z,99839.16
2023-08-31T20:04:31.689Z,99850.78
2023-08-31T20:06:58.479Z,99851.31
2023-08-31T20:09:26.182Z,99850.66
2023-08-31T20:11:53.067Z,99858.25
2023-08-31T20:14:19.792Z,99858.53
2023-08-31T20:16:46.333Z,99866.50
2023-08-31T20:19:12.882Z,99866.50
2023-08-31T20:21:39.370Z,99878.38
2023-08-31T20:24:06.163Z,99875.06
2023-08-31T20:26:32.649Z,99875.47
2023-08-31T20:28:59.160Z,99878.00
2023-08-31T20:31:26.530Z,99884.50
2023-08-31T20:33:53.719Z,99879.97
2023-08-31T20:36:21.679Z,99880.31
2023-08-31T20:38:48.552Z,99887.97
2023-08-31T20:41:18.088Z,99884.31
2023-08-31T20:43:44.705Z,99884.09
2023-08-31T20:46:11.593Z,99885.91
2023-08-31T20:48:38.412Z,99885.19
2023-08-31T20:51:06.720Z,99895.41
2023-08-31T20:53:33.668Z,99891.84
2023-08-31T20:56:12.232Z,99901.34
2023-08-31T20:58:39.617Z,99889.88
2023-08-31T21:01:07.461Z,99902.81
2023-08-31T21:03:34.914Z,99897.00
2023-08-31T21:06:01.699Z,99894.28
2023-08-31T21:08:28.282Z,99900.97
2023-08-31T21:10:55.096Z,99899.00
2023-08-31T21:13:22.793Z,99900.78
2023-08-31T21:15:51.393Z,99900.41
2023-08-31T21:18:18.737Z,99900.19
2023-08-31T21:20:45.903Z,99902.91
2023-08-31T21:23:14.425Z,99909.31
2023-08-31T21:25:44.995Z,99900.56
2023-08-31T21:28:12.387Z,99901.94
2023-08-31T21:30:40.025Z,99908.75
2023-08-31T21:33:07.210Z,99902.31
2023-08-31T21:35:37.889Z,99913.16
2023-08-31T21:38:05.279Z,99914.28
2023-08-31T21:40:36.957Z,99920.34
2023-08-31T21:43:04.164Z,99924.19
2023-08-31T21:45:31.496Z,99932.13
2023-08-31T21:47:58.788Z,99934.97
2023-08-31T21:50:27.374Z,99925.59
2023-08-31T21:52:54.064Z,99930.66
2023-08-31T21:55:20.732Z,99928.16
2023-08-31T21:57:47.497Z,99921.25
2023-08-31T22:00:19.005Z,99936.59
2023-08-31T22:02:47.364Z,99933.75
2023-08-31T22:05:15.250Z,99941.06
2023-08-31T22:07:41.875Z,99935.38
2023-08-31T22:10:08.723Z,99938.25
2023-08-31T22:12:35.732Z,99944.47
2023-08-31T22:15:07.680Z,99945.91
2023-08-31T22:17:34.339Z,99945.16
2023-08-31T22:20:02.408Z,99943.78
2023-08-31T22:22:29.001Z,99947.78
2023-08-31T22:24:55.636Z,99951.06
2023-08-31T22:27:22.365Z,99946.66
2023-08-31T22:29:48.922Z,99951.72
2023-08-31T22:32:15.852Z,99946.97
2023-08-31T22:34:42.382Z,99941.69
2023-08-31T22:37:09.921Z,99942.34
2023-08-31T22:39:36.597Z,99946.03
2023-08-31T22:42:04.501Z,99944.41
2023-08-31T22:44:34.073Z,99944.81
2023-08-31T22:47:00.948Z,99958.25
2023-08-31T22:49:27.905Z,99950.25
2023-08-31T22:51:54.481Z,99954.16
2023-08-31T22:54:21.050Z,99951.25
2023-08-31T22:56:47.748Z,99940.47
2023-08-31T22:59:14.823Z,99942.72
2023-08-31T23:01:41.990Z,99955.22
2023-08-31T23:04:08.535Z,99953.66
2023-08-31T23:06:35.092Z,99954.84
2023-08-31T23:09:01.914Z,99955.25
2023-08-31T23:11:28.409Z,99960.13
2023-08-31T23:13:55.246Z,99953.00
2023-08-31T23:16:21.882Z,99960.47
2023-08-31T23:18:48.524Z,99959.78
2023-08-31T23:21:15.751Z,99961.28
2023-08-31T23:23:44.455Z,99960.75
2023-08-31T23:26:11.083Z,99958.56
2023-08-31T23:28:38.308Z,99950.78
2023-08-31T23:31:05.269Z,99960.28
2023-08-31T23:33:32.587Z,99959.41
2023-08-31T23:35:59.503Z,99966.72
2023-08-31T23:38:29.055Z,99963.28
2023-08-31T23:40:57.501Z,99972.47
2023-08-31T23:43:25.502Z,99971.28
2023-08-31T23:45:52.820Z,99965.22
2023-08-31T23:48:19.358Z,99977.38
2023-08-31T23:50:46.097Z,99972.50
2023-08-31T23:53:12.718Z,99965.69
2023-08-31T23:55:40.290Z,99969.47
2023-08-31T23:58:07.204Z,99959.31
